Time;durP1;ratioP1;P1;durP2;ratioP2;P2;SDS_P1;SDS_P2;PMS_P1;PMS_P2;Temp;Humidity;BMP_temperature;BMP_pressure;BME280_temperature;BME280_humidity;BME280_pressure;Samples;Min_cycle;Max_cycle;Signal;HPM_P1;HPM_P2
2023/10/07 00:00:59;;;;;;;5.70;3.90;;;16.80;66.80;;;;;;6318262;28;20225;-79
2023/10/07 00:04:05;;;;;;;6.97;4.13;;;16.80;66.90;;;;;;6309094;28;20396;-82
2023/10/07 00:07:11;;;;;;;7.40;4.73;;;16.90;66.80;;;;;;6316872;28;20226;-79
2023/10/07 00:10:16;;;;;;;5.10;4.67;;;16.80;67.10;;;;;;6307229;28;20242;-82
2023/10/07 00:13:20;;;;;;;4.10;3.80;;;16.90;66.90;;;;;;6308601;28;20244;-79
2023/10/07 00:16:24;;;;;;;5.47;4.10;;;16.90;67.10;;;;;;6305112;28;20235;-80
2023/10/07 00:19:33;;;;;;;6.47;4.90;;;16.90;67.00;;;;;;6318787;28;20237;-80
2023/10/07 00:22:41;;;;;;;5.80;4.60;;;16.80;67.20;;;;;;6320183;28;20256;-77
2023/10/07 00:25:49;;;;;;;5.33;4.63;;;16.80;67.20;;;;;;6320622;28;20244;-80
2023/10/07 00:29:00;;;;;;;6.43;4.10;;;16.90;67.10;;;;;;6309708;28;20233;-80
2023/10/07 00:32:05;;;;;;;6.87;4.67;;;16.90;67.10;;;;;;6304387;28;20281;-82
2023/10/07 00:35:11;;;;;;;5.03;4.70;;;16.90;67.10;;;;;;6292578;28;20633;-82
2023/10/07 00:38:15;;;;;;;4.73;4.37;;;16.90;67.20;;;;;;6281198;28;20678;-79
2023/10/07 00:41:18;;;;;;;5.03;4.67;;;16.90;67.30;;;;;;6282303;28;20291;-81
2023/10/07 00:44:22;;;;;;;8.33;4.83;;;16.90;67.30;;;;;;6289386;28;20290;-80
2023/10/07 00:47:28;;;;;;;5.97;4.70;;;16.90;67.40;;;;;;6289277;28;20235;-82
2023/10/07 00:50:34;;;;;;;5.50;4.20;;;16.90;67.30;;;;;;6289538;28;20248;-79
2023/10/07 00:53:45;;;;;;;4.80;4.30;;;16.90;67.50;;;;;;6281147;28;20233;-82
2023/10/07 00:57:01;;;;;;;4.83;4.43;;;16.90;67.60;;;;;;6271613;28;20234;-80
2023/10/07 01:00:30;;;;;;;4.73;4.33;;;16.90;67.50;;;;;;6276063;28;20237;-81
2023/10/07 01:03:47;;;;;;;8.07;4.83;;;17.00;67.50;;;;;;6277936;28;20858;-80
2023/10/07 01:07:02;;;;;;;6.47;4.23;;;16.90;67.70;;;;;;6288108;28;20237;-80
2023/10/07 01:10:13;;;;;;;8.30;4.40;;;17.00;67.70;;;;;;6284746;28;20241;-81
2023/10/07 01:13:29;;;;;;;4.20;4.00;;;16.90;67.80;;;;;;6281283;28;20226;-77
2023/10/07 01:16:40;;;;;;;4.70;4.30;;;17.00;67.70;;;;;;6267545;28;20246;-80
2023/10/07 01:19:52;;;;;;;6.73;4.77;;;17.00;67.80;;;;;;6281080;28;20764;-80
2023/10/07 01:23:04;;;;;;;4.77;4.30;;;17.00;67.90;;;;;;6275416;28;20278;-80
2023/10/07 01:26:15;;;;;;;7.20;4.40;;;17.00;67.80;;;;;;6284748;28;20260;-79
2023/10/07 01:29:20;;;;;;;7.27;4.40;;;17.00;68.00;;;;;;6278349;28;20236;-80
2023/10/07 01:32:27;;;;;;;5.27;4.87;;;16.90;68.10;;;;;;6277729;28;20240;-78
2023/10/07 01:35:38;;;;;;;4.80;4.40;;;16.90;68.20;;;;;;6285768;28;20240;-80
2023/10/07 01:38:47;;;;;;;5.50;4.70;;;16.90;68.10;;;;;;6284159;28;20233;-80
2023/10/07 01:41:51;;;;;;;4.93;3.97;;;17.00;68.10;;;;;;6278843;28;20241;-77
2023/10/07 01:45:08;;;;;;;6.07;3.93;;;16.90;68.10;;;;;;6281014;28;20294;-81
2023/10/07 01:48:12;;;;;;;5.67;4.50;;;17.00;68.30;;;;;;6285983;28;20283;-82
2023/10/07 01:51:15;;;;;;;4.87;4.47;;;16.90;68.20;;;;;;6284761;28;20360;-80
2023/10/07 01:54:20;;;;;;;4.23;3.90;;;17.00;68.40;;;;;;6282821;28;20244;-80
2023/10/07 01:57:23;;;;;;;5.23;4.73;;;16.90;68.40;;;;;;6278961;28;20273;-80
2023/10/07 02:00:42;;;;;;;7.00;4.70;;;16.90;68.60;;;;;;6286544;28;20318;-82
2023/10/07 02:03:46;;;;;;;5.47;4.97;;;16.90;68.60;;;;;;6278308;28;20240;-81
2023/10/07 02:06:51;;;;;;;6.33;4.93;;;16.90;68.80;;;;;;6275551;28;20252;-79
2023/10/07 02:09:57;;;;;;;5.80;4.60;;;16.90;68.80;;;;;;6278893;28;20221;-82
2023/10/07 02:13:00;;;;;;;7.87;4.30;;;16.90;68.80;;;;;;6284206;28;20233;-80
2023/10/07 02:16:07;;;;;;;5.00;4.50;;;16.90;68.70;;;;;;6284454;28;20763;-79
2023/10/07 02:19:14;;;;;;;6.97;4.40;;;16.90;68.80;;;;;;6283411;28;20276;-80
2023/10/07 02:22:22;;;;;;;4.77;4.37;;;17.00;68.70;;;;;;6279766;28;20253;-80
2023/10/07 02:25:29;;;;;;;8.07;5.10;;;16.90;69.00;;;;;;6284571;28;20721;-81
2023/10/07 02:28:33;;;;;;;8.80;4.93;;;16.90;69.10;;;;;;6278781;28;20242;-81
2023/10/07 02:31:43;;;;;;;6.73;5.00;;;16.90;69.30;;;;;;6280991;28;20271;-82
2023/10/07 02:34:54;;;;;;;6.37;4.97;;;16.80;69.40;;;;;;6279775;28;20241;-81
2023/10/07 02:37:57;;;;;;;7.27;4.27;;;16.90;69.30;;;;;;6279866;28;20257;-79
2023/10/07 02:41:08;;;;;;;6.50;4.73;;;16.90;69.30;;;;;;6274070;28;20226;-80
2023/10/07 02:44:16;;;;;;;6.97;4.80;;;16.90;69.50;;;;;;6269433;28;20249;-79
2023/10/07 02:47:20;;;;;;;6.73;4.70;;;16.80;69.60;;;;;;6276913;28;20233;-81
2023/10/07 02:50:25;;;;;;;6.23;4.97;;;16.80;69.70;;;;;;6277691;28;20731;-82
2023/10/07 02:53:35;;;;;;;5.37;4.80;;;16.80;69.60;;;;;;6285683;28;20233;-81
2023/10/07 02:56:44;;;;;;;5.50;4.77;;;16.80;69.90;;;;;;6285258;28;20732;-79
2023/10/07 02:59:50;;;;;;;5.17;4.57;;;16.80;70.00;;;;;;6278383;28;20249;-80
2023/10/07 03:03:10;;;;;;;9.27;5.57;;;16.80;70.00;;;;;;6283625;28;20276;-81
2023/10/07 03:06:17;;;;;;;6.27;5.47;;;16.80;70.30;;;;;;6276771;28;20765;-80
2023/10/07 03:09:21;;;;;;;5.70;5.10;;;16.80;70.30;;;;;;6275336;28;20322;-79
2023/10/07 03:12:28;;;;;;;5.63;5.13;;;16.70;70.40;;;;;;6277860;28;20343;-81
2023/10/07 03:15:41;;;;;;;7.23;5.10;;;16.70;70.60;;;;;;6270709;28;20313;-81
2023/10/07 03:18:55;;;;;;;6.10;5.47;;;16.70;70.50;;;;;;6278857;28;20826;-80
2023/10/07 03:22:09;;;;;;;7.77;5.43;;;16.70;70.70;;;;;;6278081;28;20237;-81
2023/10/07 03:25:17;;;;;;;6.33;5.40;;;16.70;70.70;;;;;;6285833;28;20249;-80
2023/10/07 03:28:24;;;;;;;11.93;5.63;;;16.70;70.90;;;;;;6269552;28;20898;-79
2023/10/07 03:31:34;;;;;;;5.70;4.77;;;16.70;70.80;;;;;;6264831;28;20248;-79
2023/10/07 03:34:38;;;;;;;5.80;5.20;;;16.70;70.80;;;;;;6277631;28;20950;-78
2023/10/07 03:37:44;;;;;;;9.27;5.13;;;16.80;70.90;;;;;;6270434;28;20290;-79
2023/10/07 03:40:53;;;;;;;10.40;5.43;;;16.70;70.90;;;;;;6272276;28;20244;-80
2023/10/07 03:43:59;;;;;;;5.87;5.40;;;16.70;70.90;;;;;;6267899;28;20316;-82
2023/10/07 03:47:02;;;;;;;5.50;5.10;;;16.70;71.00;;;;;;6277887;28;20233;-80
2023/10/07 03:50:24;;;;;;;5.23;4.73;;;16.70;71.00;;;;;;6282242;28;20225;-82
2023/10/07 03:53:31;;;;;;;5.53;5.03;;;16.70;71.20;;;;;;6282467;28;20234;-80
2023/10/07 03:56:35;;;;;;;5.73;5.13;;;16.70;71.20;;;;;;6282476;28;20238;-82
2023/10/07 03:59:39;;;;;;;7.57;5.30;;;16.70;71.20;;;;;;6284524;28;20993;-81
2023/10/07 04:02:44;;;;;;;5.93;4.97;;;16.70;71.20;;;;;;6282157;28;20260;-81
2023/10/07 04:05:49;;;;;;;5.73;5.20;;;16.70;71.20;;;;;;6286187;28;20240;-84
2023/10/07 04:08:53;;;;;;;6.53;5.17;;;16.70;71.00;;;;;;6282541;28;20233;-83
2023/10/07 04:11:57;;;;;;;5.83;4.77;;;16.60;71.20;;;;;;6285575;28;20296;-83
2023/10/07 04:15:03;;;;;;;8.30;5.00;;;16.70;71.20;;;;;;6286036;28;20674;-81
2023/10/07 04:18:09;;;;;;;6.00;5.40;;;16.60;71.20;;;;;;6276347;28;20232;-82
2023/10/07 04:21:12;;;;;;;9.20;5.10;;;16.60;71.20;;;;;;6283917;28;20248;-82
2023/10/07 04:24:16;;;;;;;6.73;5.13;;;16.60;71.30;;;;;;6285859;28;20320;-82
2023/10/07 04:27:20;;;;;;;7.40;5.17;;;16.70;71.10;;;;;;6288307;28;20256;-79
2023/10/07 04:30:28;;;;;;;6.67;5.20;;;16.60;71.20;;;;;;6288729;28;20244;-81
2023/10/07 04:33:40;;;;;;;9.13;5.23;;;16.60;71.20;;;;;;6276475;28;20237;-81
2023/10/07 04:37:10;;;;;;;6.93;5.40;;;16.60;71.40;;;;;;6282320;28;20256;-83
2023/10/07 04:43:48;;;;;;;6.20;5.30;;;16.60;71.50;;;;;;6281402;28;20246;-82
2023/10/07 04:47:20;;;;;;;5.97;5.30;;;16.60;71.60;;;;;;6285829;28;20742;-85
2023/10/07 04:50:33;;;;;;;6.33;5.17;;;16.60;71.60;;;;;;6282921;28;20306;-82
2023/10/07 04:53:39;;;;;;;7.50;5.50;;;16.60;71.60;;;;;;6280789;28;20245;-79
2023/10/07 04:56:47;;;;;;;6.87;5.20;;;16.60;71.80;;;;;;6284362;28;20233;-79
2023/10/07 04:59:50;;;;;;;8.80;5.33;;;16.50;71.90;;;;;;6283762;28;20898;-81
2023/10/07 05:02:57;;;;;;;5.20;4.77;;;16.50;71.90;;;;;;6285590;28;20253;-81
2023/10/07 05:06:04;;;;;;;6.47;5.77;;;16.50;72.30;;;;;;6285596;28;20237;-81
2023/10/07 05:09:09;;;;;;;6.53;5.30;;;16.40;72.90;;;;;;6283891;28;20382;-82
2023/10/07 05:12:13;;;;;;;8.60;5.37;;;16.40;73.50;;;;;;6288765;28;20233;-82
2023/10/07 05:15:17;;;;;;;9.33;5.30;;;16.40;74.00;;;;;;6285167;28;20237;-82
2023/10/07 05:18:22;;;;;;;11.20;6.20;;;16.20;74.50;;;;;;6281278;28;20229;-81
2023/10/07 05:21:26;;;;;;;5.90;5.30;;;16.20;74.60;;;;;;6283961;28;20229;-78
2023/10/07 05:24:30;;;;;;;6.20;5.47;;;16.20;74.70;;;;;;6287830;28;20658;-83
2023/10/07 05:27:40;;;;;;;7.97;5.90;;;16.10;74.70;;;;;;6270506;28;20249;-82
2023/10/07 05:30:50;;;;;;;5.83;5.40;;;16.10;74.60;;;;;;6282662;28;20237;-83
2023/10/07 05:33:55;;;;;;;7.23;6.07;;;16.20;74.50;;;;;;6284363;28;20234;-81
2023/10/07 05:36:59;;;;;;;6.10;5.40;;;16.20;74.10;;;;;;6287081;28;20236;-81
2023/10/07 05:40:04;;;;;;;6.80;6.10;;;16.40;73.80;;;;;;6282857;28;20426;-83
2023/10/07 05:43:08;;;;;;;5.97;5.37;;;16.40;73.90;;;;;;6284731;28;20249;-82
2023/10/07 05:46:11;;;;;;;10.47;5.27;;;16.40;73.80;;;;;;6283018;28;20749;-81
2023/10/07 05:49:16;;;;;;;6.00;5.50;;;16.40;73.70;;;;;;6286978;28;20245;-82
2023/10/07 05:52:19;;;;;;;6.70;5.47;;;16.40;73.50;;;;;;6284878;28;20237;-82
2023/10/07 05:55:23;;;;;;;8.90;5.70;;;16.40;73.20;;;;;;6281608;28;20260;-82
2023/10/07 05:58:27;;;;;;;9.00;5.53;;;16.40;73.00;;;;;;6283505;28;20241;-80
2023/10/07 06:01:33;;;;;;;6.10;5.50;;;16.40;73.20;;;;;;6284946;28;20438;-81
2023/10/07 06:04:39;;;;;;;5.90;5.30;;;16.40;73.20;;;;;;6286656;28;20242;-81
2023/10/07 06:07:42;;;;;;;5.97;4.93;;;16.40;73.00;;;;;;6278378;28;20238;-82
2023/10/07 06:10:51;;;;;;;5.80;5.27;;;16.40;73.00;;;;;;6283980;28;20981;-80
2023/10/07 06:13:55;;;;;;;6.70;6.00;;;16.40;72.90;;;;;;6284206;28;20268;-79
2023/10/07 06:16:58;;;;;;;6.40;5.80;;;16.40;73.30;;;;;;6280314;28;20236;-83
2023/10/07 06:20:14;;;;;;;7.03;5.70;;;16.40;73.30;;;;;;6282586;28;20248;-83
2023/10/07 06:23:18;;;;;;;7.33;6.43;;;16.40;73.50;;;;;;6278889;28;20280;-80
2023/10/07 06:26:22;;;;;;;6.07;5.63;;;16.40;73.70;;;;;;6284419;28;20782;-80
2023/10/07 06:29:31;;;;;;;6.07;5.40;;;16.30;74.10;;;;;;6276178;28;20312;-80
2023/10/07 06:32:44;;;;;;;7.13;6.17;;;16.20;74.60;;;;;;6280381;28;20230;-84
2023/10/07 06:35:51;;;;;;;6.63;6.03;;;16.20;75.10;;;;;;6281513;28;20241;-80
2023/10/07 06:38:58;;;;;;;9.50;6.30;;;16.00;75.90;;;;;;6285452;28;20221;-80
2023/10/07 06:42:02;;;;;;;6.80;5.53;;;16.00;76.00;;;;;;6281977;28;20721;-80
2023/10/07 06:45:10;;;;;;;6.57;6.07;;;15.90;76.30;;;;;;6281467;28;20645;-82
2023/10/07 06:48:15;;;;;;;6.17;5.67;;;15.90;76.20;;;;;;6278349;28;20241;-81
2023/10/07 06:51:20;;;;;;;6.97;5.93;;;16.00;76.20;;;;;;6286026;28;20286;-81
2023/10/07 06:54:25;;;;;;;9.50;6.20;;;16.00;76.20;;;;;;6282598;28;20375;-81
2023/10/07 06:57:29;;;;;;;8.37;5.90;;;16.00;76.00;;;;;;6282936;28;20627;-80
2023/10/07 07:00:47;;;;;;;10.70;6.60;;;16.00;76.10;;;;;;6267609;28;20232;-79
2023/10/07 07:03:51;;;;;;;7.93;5.90;;;16.00;76.20;;;;;;6277403;28;20249;-79
2023/10/07 07:07:09;;;;;;;8.00;5.93;;;16.00;75.70;;;;;;6282785;28;20256;-80
2023/10/07 07:10:16;;;;;;;7.40;6.70;;;16.00;75.80;;;;;;6285149;28;20705;-82
2023/10/07 07:13:25;;;;;;;7.33;6.47;;;16.10;75.80;;;;;;6282213;28;20244;-80
2023/10/07 07:16:29;;;;;;;10.40;6.77;;;16.00;76.20;;;;;;6280015;28;20332;-80
2023/10/07 07:19:37;;;;;;;7.40;6.70;;;16.00;76.90;;;;;;6280047;28;20261;-81
2023/10/07 07:22:42;;;;;;;7.23;6.57;;;15.90;77.50;;;;;;6281469;28;20362;-82
2023/10/07 07:25:51;;;;;;;7.90;7.10;;;15.80;78.40;;;;;;6284266;28;20320;-82
2023/10/07 07:28:57;;;;;;;7.67;7.07;;;15.70;78.90;;;;;;6272356;28;20233;-80
2023/10/07 07:32:04;;;;;;;7.63;7.00;;;15.60;79.10;;;;;;6285591;28;20237;-83
2023/10/07 07:35:10;;;;;;;9.40;6.93;;;15.70;79.00;;;;;;6280008;28;20256;-81
2023/10/07 07:38:26;;;;;;;8.60;7.50;;;15.80;79.00;;;;;;6285796;28;20240;-80
2023/10/07 07:41:34;;;;;;;8.50;7.40;;;15.80;78.70;;;;;;6289866;28;20678;-81
2023/10/07 07:44:45;;;;;;;8.33;7.63;;;15.80;78.60;;;;;;6285482;28;20452;-83
2023/10/07 07:47:49;;;;;;;7.17;6.67;;;15.80;78.60;;;;;;6276133;28;20241;-81
2023/10/07 07:50:55;;;;;;;7.20;6.60;;;15.90;78.20;;;;;;6290726;28;20237;-81
2023/10/07 07:54:00;;;;;;;9.63;7.60;;;15.90;78.10;;;;;;6285088;28;20706;-81
2023/10/07 07:57:04;;;;;;;7.50;6.53;;;15.90;78.30;;;;;;6272719;28;20253;-80
2023/10/07 08:00:09;;;;;;;6.90;6.30;;;16.00;78.10;;;;;;6274798;28;20239;-82
2023/10/07 08:03:13;;;;;;;7.37;6.50;;;16.00;77.90;;;;;;6284902;28;20233;-81
2023/10/07 08:06:20;;;;;;;7.07;6.33;;;16.00;77.50;;;;;;6283089;28;20318;-82
2023/10/07 08:09:28;;;;;;;6.47;5.77;;;16.20;77.10;;;;;;6283344;28;20230;-81
2023/10/07 08:12:34;;;;;;;6.60;5.97;;;16.20;77.00;;;;;;6278750;28;20836;-82
2023/10/07 08:15:41;;;;;;;6.63;6.13;;;16.30;76.60;;;;;;6275808;28;20275;-81
2023/10/07 08:18:44;;;;;;;6.30;5.70;;;16.40;76.50;;;;;;6274736;28;20898;-82
2023/10/07 08:21:51;;;;;;;6.20;5.70;;;16.40;76.40;;;;;;6284284;28;20947;-81
2023/10/07 08:25:00;;;;;;;6.43;5.93;;;16.40;76.40;;;;;;6284028;28;20233;-82
2023/10/07 08:28:18;;;;;;;5.87;5.37;;;16.40;76.30;;;;;;6277657;28;20234;-81
2023/10/07 08:31:22;;;;;;;7.93;6.10;;;16.40;76.50;;;;;;6276124;28;20325;-80
2023/10/07 08:34:32;;;;;;;6.33;5.87;;;16.30;77.20;;;;;;6276760;28;20241;-81
2023/10/07 08:37:45;;;;;;;6.93;6.37;;;16.40;77.30;;;;;;6276679;28;20230;-81
2023/10/07 08:41:04;;;;;;;7.63;6.00;;;16.30;77.70;;;;;;6270910;28;20244;-79
2023/10/07 08:44:13;;;;;;;6.63;5.73;;;16.30;77.80;;;;;;6285890;28;20305;-82
2023/10/07 08:47:17;;;;;;;8.43;5.53;;;16.20;78.10;;;;;;6281925;28;20241;-82
2023/10/07 08:50:22;;;;;;;6.10;5.70;;;16.30;78.10;;;;;;6280500;28;20640;-80
2023/10/07 08:53:28;;;;;;;6.07;5.53;;;16.40;78.10;;;;;;6289058;28;20312;-81
2023/10/07 08:56:35;;;;;;;6.67;6.07;;;16.40;77.50;;;;;;6287355;28;20237;-82
2023/10/07 08:59:40;;;;;;;6.17;5.77;;;16.40;77.60;;;;;;6287560;28;20248;-84
2023/10/07 09:02:47;;;;;;;6.10;5.70;;;16.40;77.60;;;;;;6286426;28;20294;-81
2023/10/07 09:05:51;;;;;;;6.43;6.00;;;16.50;77.20;;;;;;6278918;28;20225;-79
2023/10/07 09:08:56;;;;;;;7.13;5.97;;;16.60;77.00;;;;;;6273140;28;20225;-83
2023/10/07 09:12:03;;;;;;;6.97;6.37;;;16.70;76.60;;;;;;6283113;28;20295;-79
2023/10/07 09:15:12;;;;;;;7.30;6.57;;;16.60;76.70;;;;;;6285734;28;20303;-76
2023/10/07 09:18:17;;;;;;;6.57;6.17;;;16.70;76.70;;;;;;6285726;28;20276;-81
2023/10/07 09:21:22;;;;;;;6.40;5.90;;;16.70;76.70;;;;;;6287858;28;20229;-82
2023/10/07 09:24:25;;;;;;;6.30;5.83;;;16.60;76.70;;;;;;6281740;28;20332;-83
2023/10/07 09:27:36;;;;;;;6.43;5.80;;;16.60;76.70;;;;;;6285482;28;20244;-78
2023/10/07 09:30:45;;;;;;;7.47;6.77;;;16.60;76.60;;;;;;6287493;28;20395;-81
2023/10/07 09:33:49;;;;;;;7.03;6.43;;;16.60;76.70;;;;;;6280315;28;20363;-80
2023/10/07 09:36:54;;;;;;;7.93;7.10;;;16.60;76.80;;;;;;6279516;28;20598;-83
2023/10/07 09:40:19;;;;;;;6.60;6.20;;;16.60;76.80;;;;;;6279461;28;20233;-80
2023/10/07 09:43:26;;;;;;;7.10;6.60;;;16.60;76.90;;;;;;6284816;28;20233;-83
2023/10/07 09:46:39;;;;;;;7.77;6.27;;;16.60;76.60;;;;;;6282375;28;20725;-81
2023/10/07 09:49:44;;;;;;;7.63;6.93;;;16.60;76.50;;;;;;6283253;28;20240;-82
2023/10/07 09:52:56;;;;;;;8.60;7.13;;;16.60;76.70;;;;;;6281668;28;20241;-82
2023/10/07 09:56:21;;;;;;;7.93;7.33;;;16.60;76.70;;;;;;6274856;28;20222;-80
2023/10/07 09:59:36;;;;;;;8.23;7.57;;;16.60;76.60;;;;;;6283063;28;20234;-82
2023/10/07 10:03:03;;;;;;;10.27;8.53;;;16.60;76.60;;;;;;6278701;28;20241;-82
2023/10/07 10:06:34;;;;;;;9.83;8.87;;;16.50;76.60;;;;;;6287551;28;20271;-81
2023/10/07 10:10:00;;;;;;;10.87;9.47;;;16.50;77.10;;;;;;6277260;28;20241;-82
2023/10/07 10:13:12;;;;;;;10.53;9.50;;;16.50;77.40;;;;;;6282299;28;20244;-81
2023/10/07 10:16:20;;;;;;;11.80;10.30;;;16.40;77.70;;;;;;6281987;28;20237;-80
2023/10/07 10:19:37;;;;;;;12.87;10.20;;;16.40;77.80;;;;;;6284152;28;20281;-83
2023/10/07 10:22:50;;;;;;;13.60;11.23;;;16.40;77.90;;;;;;6275386;28;20337;-83
2023/10/07 10:25:54;;;;;;;12.30;11.17;;;16.40;78.00;;;;;;6280119;28;20901;-81
2023/10/07 10:29:03;;;;;;;12.10;10.63;;;16.40;77.90;;;;;;6277521;28;20232;-82
2023/10/07 10:32:16;;;;;;;11.00;9.97;;;16.40;77.70;;;;;;6285649;28;20367;-82
2023/10/07 10:35:24;;;;;;;12.67;11.20;;;16.40;77.60;;;;;;6278784;28;20238;-82
2023/10/07 10:38:40;;;;;;;11.50;10.50;;;16.50;77.30;;;;;;6279433;28;20234;-82
2023/10/07 10:41:44;;;;;;;11.50;10.43;;;16.50;77.30;;;;;;6278471;28;20242;-79
2023/10/07 10:44:49;;;;;;;12.70;11.63;;;16.50;77.10;;;;;;6284319;28;20229;-83
2023/10/07 10:47:55;;;;;;;12.27;11.00;;;16.60;76.90;;;;;;6283369;28;20769;-83
2023/10/07 10:50:58;;;;;;;12.53;11.53;;;16.50;77.00;;;;;;6278450;28;20848;-82
2023/10/07 10:54:02;;;;;;;12.00;11.10;;;16.50;77.20;;;;;;6286073;28;20248;-82
2023/10/07 10:57:07;;;;;;;12.87;11.63;;;16.50;77.20;;;;;;6281173;28;20248;-84
2023/10/07 11:00:19;;;;;;;14.03;12.73;;;16.50;78.20;;;;;;6281541;28;20318;-81
2023/10/07 11:03:24;;;;;;;14.90;13.53;;;16.40;78.40;;;;;;6279875;28;20229;-84
2023/10/07 11:06:28;;;;;;;14.47;13.27;;;16.30;79.20;;;;;;6278142;28;20230;-83
2023/10/07 11:09:37;;;;;;;15.70;14.43;;;16.30;79.20;;;;;;6278358;28;20238;-82
2023/10/07 11:12:45;;;;;;;15.07;13.73;;;16.30;79.20;;;;;;6285606;28;20253;-83
2023/10/07 11:15:58;;;;;;;15.07;13.63;;;16.30;79.30;;;;;;6278100;28;20883;-84
2023/10/07 11:19:11;;;;;;;14.80;13.57;;;16.20;79.20;;;;;;6284670;28;20705;-83
2023/10/07 11:22:19;;;;;;;15.37;13.97;;;16.30;79.30;;;;;;6274579;28;20245;-82
2023/10/07 11:25:27;;;;;;;15.03;13.67;;;16.30;79.10;;;;;;6282121;28;20763;-82
2023/10/07 11:28:33;;;;;;;15.30;14.00;;;16.40;79.10;;;;;;6281653;28;20260;-81
2023/10/07 11:31:37;;;;;;;14.70;13.57;;;16.40;79.40;;;;;;6276620;28;20237;-83
2023/10/07 11:34:43;;;;;;;16.17;14.67;;;16.40;79.50;;;;;;6272162;28;20242;-84
2023/10/07 11:37:57;;;;;;;14.80;13.50;;;16.40;79.50;;;;;;6252908;28;20243;-81
2023/10/07 11:41:01;;;;;;;16.43;14.77;;;16.40;79.50;;;;;;6265213;28;20286;-81
2023/10/07 11:44:04;;;;;;;15.97;14.57;;;16.40;79.40;;;;;;6277686;28;20606;-83
2023/10/07 11:47:08;;;;;;;16.00;14.47;;;16.40;79.50;;;;;;6286043;28;20244;-84
2023/10/07 11:50:16;;;;;;;18.23;14.30;;;16.40;79.30;;;;;;6282200;28;20312;-81
2023/10/07 11:53:19;;;;;;;15.87;14.47;;;16.40;79.20;;;;;;6282475;28;20629;-83
2023/10/07 11:56:23;;;;;;;16.77;15.00;;;16.40;79.60;;;;;;6273625;28;20578;-81
2023/10/07 11:59:27;;;;;;;17.07;15.37;;;16.40;80.20;;;;;;6276576;28;20310;-79
2023/10/07 12:02:30;;;;;;;16.67;15.27;;;16.40;80.40;;;;;;6285543;28;20283;-78
2023/10/07 12:05:38;;;;;;;16.17;14.70;;;16.40;80.60;;;;;;6272955;28;20273;-80
2023/10/07 12:08:42;;;;;;;17.97;16.27;;;16.40;80.70;;;;;;6271757;28;20317;-81
2023/10/07 12:11:45;;;;;;;19.07;16.37;;;16.40;81.20;;;;;;6278214;28;20739;-80
2023/10/07 12:14:48;;;;;;;18.00;16.40;;;16.40;81.50;;;;;;6269744;28;20284;-80
2023/10/07 12:17:52;;;;;;;19.77;17.67;;;16.10;82.30;;;;;;6278132;28;20250;-81
2023/10/07 12:21:00;;;;;;;18.53;16.67;;;16.10;82.60;;;;;;6285574;28;20253;-82
2023/10/07 12:24:05;;;;;;;19.30;17.40;;;16.10;82.70;;;;;;6283303;28;20241;-84
2023/10/07 12:27:10;;;;;;;19.60;17.77;;;16.00;83.00;;;;;;6286600;28;20232;-83
2023/10/07 12:30:19;;;;;;;20.13;17.53;;;16.00;83.10;;;;;;6277114;28;20244;-82
2023/10/07 12:33:23;;;;;;;19.03;17.03;;;16.00;82.70;;;;;;6282191;28;20236;-84
2023/10/07 12:36:40;;;;;;;19.23;17.23;;;16.00;82.60;;;;;;6279974;28;20233;-83
2023/10/07 12:39:44;;;;;;;18.77;16.90;;;16.00;82.90;;;;;;6279471;28;20247;-83
2023/10/07 12:42:51;;;;;;;18.97;16.30;;;16.00;82.60;;;;;;6285916;28;20240;-84
2023/10/07 12:45:55;;;;;;;18.07;16.00;;;16.00;82.30;;;;;;6279965;28;20247;-83
2023/10/07 12:48:58;;;;;;;18.00;16.20;;;16.10;82.50;;;;;;6271068;28;20225;-83
2023/10/07 12:52:04;;;;;;;17.03;14.83;;;16.10;82.10;;;;;;6300062;28;20249;-83
2023/10/07 12:55:08;;;;;;;16.80;14.37;;;16.20;81.20;;;;;;6285488;28;20237;-83
2023/10/07 12:58:15;;;;;;;15.67;14.07;;;16.30;80.40;;;;;;6288513;28;20351;-84
2023/10/07 13:01:19;;;;;;;15.47;14.17;;;16.40;80.30;;;;;;6277362;28;20229;-82
2023/10/07 13:04:29;;;;;;;14.93;13.43;;;16.40;80.00;;;;;;6277924;28;20241;-82
2023/10/07 13:07:34;;;;;;;15.57;13.93;;;16.50;79.80;;;;;;6282912;28;20263;-81
2023/10/07 13:10:38;;;;;;;14.73;12.97;;;16.50;79.30;;;;;;6285015;28;20316;-81
2023/10/07 13:13:42;;;;;;;13.77;12.43;;;16.50;79.10;;;;;;6278902;28;20252;-82
2023/10/07 13:16:47;;;;;;;13.43;12.13;;;16.60;78.80;;;;;;6279836;28;20318;-82
2023/10/07 13:19:51;;;;;;;13.93;12.53;;;16.70;78.60;;;;;;6283934;28;20233;-81
2023/10/07 13:22:59;;;;;;;12.87;11.87;;;16.60;78.30;;;;;;6273558;28;20234;-82
2023/10/07 13:26:02;;;;;;;13.60;12.23;;;16.70;78.10;;;;;;6280465;28;20240;-81
2023/10/07 13:29:10;;;;;;;14.33;12.83;;;16.80;77.90;;;;;;6276901;28;20248;-81
2023/10/07 13:32:17;;;;;;;13.20;11.90;;;16.80;77.80;;;;;;6277834;28;20777;-80
2023/10/07 13:35:21;;;;;;;13.80;12.53;;;16.70;77.90;;;;;;6278813;28;20312;-82
2023/10/07 13:38:26;;;;;;;13.87;12.47;;;16.80;77.70;;;;;;6278303;28;20462;-79
2023/10/07 13:41:29;;;;;;;16.43;12.57;;;16.80;77.70;;;;;;6272886;28;20344;-80
2023/10/07 13:44:32;;;;;;;17.93;12.13;;;16.80;77.50;;;;;;6289659;28;20260;-79
2023/10/07 13:47:36;;;;;;;13.63;12.33;;;16.80;77.40;;;;;;6272302;28;20304;-81
2023/10/07 13:50:40;;;;;;;12.47;11.27;;;16.80;77.20;;;;;;6281200;28;20248;-80
2023/10/07 13:57:03;;;;;;;12.10;10.70;;;17.00;76.80;;;;;;6286398;28;20257;-81
2023/10/07 14:00:27;;;;;;;13.33;11.07;;;17.00;76.30;;;;;;6279831;28;20241;-80
2023/10/07 14:03:36;;;;;;;11.93;10.73;;;17.00;76.40;;;;;;6276924;28;20243;-81
2023/10/07 14:06:40;;;;;;;10.87;10.00;;;17.10;76.20;;;;;;6279446;28;20248;-80
2023/10/07 14:09:48;;;;;;;12.47;11.23;;;17.20;76.10;;;;;;6275188;28;20244;-82
2023/10/07 14:12:52;;;;;;;11.30;10.40;;;17.20;75.90;;;;;;6278241;28;20728;-84
2023/10/07 14:15:57;;;;;;;11.03;9.80;;;17.30;75.70;;;;;;6278620;28;20724;-81
2023/10/07 14:19:22;;;;;;;10.90;10.00;;;17.40;75.50;;;;;;6274319;28;20230;-82
2023/10/07 14:22:28;;;;;;;12.77;10.27;;;17.50;75.20;;;;;;6284095;28;20366;-81
2023/10/07 14:25:34;;;;;;;10.10;9.20;;;17.50;75.00;;;;;;6276524;28;20234;-81
2023/10/07 14:28:37;;;;;;;12.60;11.07;;;17.50;74.90;;;;;;6272422;28;20249;-82
2023/10/07 14:31:44;;;;;;;12.20;11.10;;;17.50;75.50;;;;;;6279829;28;20286;-83
2023/10/07 14:34:47;;;;;;;11.93;10.70;;;17.50;76.20;;;;;;6269402;28;20322;-80
2023/10/07 14:37:51;;;;;;;13.30;11.90;;;17.40;77.30;;;;;;6267467;28;20242;-81
2023/10/07 14:40:56;;;;;;;15.70;12.63;;;17.20;78.30;;;;;;6269418;28;20230;-81
2023/10/07 14:44:01;;;;;;;12.73;11.57;;;17.10;78.90;;;;;;6283016;28;20249;-81
2023/10/07 14:47:06;;;;;;;13.67;12.43;;;17.00;79.80;;;;;;6275216;28;20343;-78
2023/10/07 14:50:11;;;;;;;13.80;12.40;;;16.90;80.50;;;;;;6276827;28;20379;-78
2023/10/07 14:53:14;;;;;;;16.57;13.47;;;16.80;81.10;;;;;;6286162;28;20245;-80
2023/10/07 14:56:21;;;;;;;15.30;13.83;;;16.70;81.70;;;;;;6264132;28;20340;-77
2023/10/07 14:59:25;;;;;;;12.67;11.63;;;16.60;82.40;;;;;;6273755;28;20228;-81
2023/10/07 15:02:29;;;;;;;9.40;8.77;;;16.50;83.10;;;;;;6274557;28;20245;-81
2023/10/07 15:05:37;;;;;;;5.47;5.27;;;16.40;82.80;;;;;;6273462;28;20229;-81
2023/10/07 15:08:40;;;;;;;4.80;4.60;;;16.30;81.70;;;;;;6279588;28;20643;-81
2023/10/07 15:11:45;;;;;;;5.17;4.67;;;16.00;82.20;;;;;;6269810;28;20241;-79
2023/10/07 15:14:48;;;;;;;4.33;4.17;;;16.00;81.90;;;;;;6281191;28;20279;-81
2023/10/07 15:17:51;;;;;;;3.87;3.67;;;15.80;82.30;;;;;;6276182;28;20242;-80
2023/10/07 15:21:05;;;;;;;3.20;3.10;;;15.80;82.40;;;;;;6281653;28;20438;-80
2023/10/07 15:24:08;;;;;;;3.17;3.07;;;15.60;82.60;;;;;;6267656;28;20249;-81
2023/10/07 15:27:12;;;;;;;2.90;2.80;;;15.60;82.70;;;;;;6272837;28;20241;-80
2023/10/07 15:30:16;;;;;;;2.60;2.50;;;15.60;82.90;;;;;;6280922;28;20233;-79
2023/10/07 15:33:22;;;;;;;2.10;2.10;;;15.50;83.20;;;;;;6273615;28;20234;-80
2023/10/07 15:36:26;;;;;;;2.13;2.13;;;15.50;83.40;;;;;;6268660;28;20225;-81
2023/10/07 15:39:29;;;;;;;2.93;2.90;;;15.50;83.30;;;;;;6277586;28;20256;-80
2023/10/07 15:42:37;;;;;;;2.33;2.30;;;15.50;83.40;;;;;;6265780;28;20226;-76
2023/10/07 15:45:45;;;;;;;2.30;2.20;;;15.40;83.50;;;;;;6310864;28;20263;-77
2023/10/07 15:48:48;;;;;;;2.13;2.10;;;15.40;83.70;;;;;;6312635;28;20218;-77
2023/10/07 15:51:52;;;;;;;2.50;2.50;;;15.40;83.90;;;;;;6311944;28;20355;-76
2023/10/07 15:55:01;;;;;;;2.20;2.20;;;15.40;83.90;;;;;;6317543;28;20237;-78
2023/10/07 15:58:06;;;;;;;2.10;2.10;;;15.40;84.00;;;;;;6299274;28;20305;-79
2023/10/07 16:01:10;;;;;;;2.00;2.00;;;15.30;84.00;;;;;;6305235;28;20214;-81
2023/10/07 16:04:15;;;;;;;2.20;2.20;;;15.30;84.00;;;;;;6308025;28;20273;-82
2023/10/07 16:07:18;;;;;;;1.90;1.90;;;15.30;84.10;;;;;;6316362;28;20217;-82
2023/10/07 16:10:21;;;;;;;2.40;2.40;;;15.20;84.10;;;;;;6307885;28;20252;-82
2023/10/07 16:13:26;;;;;;;2.30;2.30;;;15.20;83.90;;;;;;6314756;28;20234;-82